sensor_id;sensor_type;location;lat;lon;timestamp;temperature;humidity
26254;DHT22;53339;51.378;0.094;2023-08-08T00:01:46;14.20;72.30
26254;DHT22;53339;51.378;0.094;2023-08-08T00:04:14;14.20;72.50
26254;DHT22;53339;51.378;0.094;2023-08-08T00:06:47;14.20;72.70
26254;DHT22;53339;51.378;0.094;2023-08-08T00:09:16;14.10;73.00
26254;DHT22;53339;51.378;0.094;2023-08-08T00:11:44;14.10;73.10
26254;DHT22;53339;51.378;0.094;2023-08-08T00:14:22;14.10;73.20
26254;DHT22;53339;51.378;0.094;2023-08-08T00:16:53;14.10;73.50
26254;DHT22;53339;51.378;0.094;2023-08-08T00:19:26;14.10;73.60
26254;DHT22;53339;51.378;0.094;2023-08-08T00:21:57;14.10;73.80
26254;DHT22;53339;51.378;0.094;2023-08-08T00:24:25;14.10;73.90
26254;DHT22;53339;51.378;0.094;2023-08-08T00:26:55;14.10;73.90
26254;DHT22;53339;51.378;0.094;2023-08-08T00:29:28;14.00;74.00
26254;DHT22;53339;51.378;0.094;2023-08-08T00:31:56;14.00;74.10
26254;DHT22;53339;51.378;0.094;2023-08-08T00:34:25;13.90;74.20
26254;DHT22;53339;51.378;0.094;2023-08-08T00:36:54;13.90;74.30
26254;DHT22;53339;51.378;0.094;2023-08-08T00:39:23;13.90;74.50
26254;DHT22;53339;51.378;0.094;2023-08-08T00:41:51;13.90;74.60
26254;DHT22;53339;51.378;0.094;2023-08-08T00:44:20;13.90;74.60
26254;DHT22;53339;51.378;0.094;2023-08-08T00:46:49;13.90;74.70
26254;DHT22;53339;51.378;0.094;2023-08-08T00:49:18;13.90;74.70
26254;DHT22;53339;51.378;0.094;2023-08-08T00:51:53;14.00;74.80
26254;DHT22;53339;51.378;0.094;2023-08-08T00:54:25;14.00;74.80
26254;DHT22;53339;51.378;0.094;2023-08-08T00:56:54;14.00;74.90
26254;DHT22;53339;51.378;0.094;2023-08-08T00:59:27;14.00;74.90
26254;DHT22;53339;51.378;0.094;2023-08-08T01:01:57;14.00;75.00
26254;DHT22;53339;51.378;0.094;2023-08-08T01:04:26;14.10;75.10
26254;DHT22;53339;51.378;0.094;2023-08-08T01:10:09;14.10;75.10
26254;DHT22;53339;51.378;0.094;2023-08-08T01:12:52;14.10;75.10
26254;DHT22;53339;51.378;0.094;2023-08-08T01:15:22;14.00;75.10
26254;DHT22;53339;51.378;0.094;2023-08-08T01:17:51;14.10;75.20
26254;DHT22;53339;51.378;0.094;2023-08-08T01:20:24;13.90;75.20
26254;DHT22;53339;51.378;0.094;2023-08-08T01:25:27;13.80;75.50
26254;DHT22;53339;51.378;0.094;2023-08-08T01:27:56;13.70;75.60
26254;DHT22;53339;51.378;0.094;2023-08-08T01:30:27;13.70;75.90
26254;DHT22;53339;51.378;0.094;2023-08-08T01:32:56;13.70;75.90
26254;DHT22;53339;51.378;0.094;2023-08-08T01:35:29;13.60;76.10
26254;DHT22;53339;51.378;0.094;2023-08-08T01:38:19;13.60;76.30
26254;DHT22;53339;51.378;0.094;2023-08-08T01:40:59;13.50;76.30
26254;DHT22;53339;51.378;0.094;2023-08-08T01:43:32;13.50;76.50
26254;DHT22;53339;51.378;0.094;2023-08-08T01:46:04;13.50;76.60
26254;DHT22;53339;51.378;0.094;2023-08-08T01:48:39;13.40;76.70
26254;DHT22;53339;51.378;0.094;2023-08-08T01:51:07;13.40;76.90
26254;DHT22;53339;51.378;0.094;2023-08-08T01:53:38;13.30;77.00
26254;DHT22;53339;51.378;0.094;2023-08-08T01:56:06;13.30;77.10
26254;DHT22;53339;51.378;0.094;2023-08-08T01:58:36;13.30;77.10
26254;DHT22;53339;51.378;0.094;2023-08-08T02:01:15;13.20;77.40
26254;DHT22;53339;51.378;0.094;2023-08-08T02:03:46;13.20;77.50
26254;DHT22;53339;51.378;0.094;2023-08-08T02:06:15;13.20;77.60
26254;DHT22;53339;51.378;0.094;2023-08-08T02:08:47;13.10;77.80
26254;DHT22;53339;51.378;0.094;2023-08-08T02:11:17;13.10;77.80
26254;DHT22;53339;51.378;0.094;2023-08-08T02:13:49;13.10;77.90
26254;DHT22;53339;51.378;0.094;2023-08-08T02:16:17;13.00;78.00
26254;DHT22;53339;51.378;0.094;2023-08-08T02:18:50;13.00;78.10
26254;DHT22;53339;51.378;0.094;2023-08-08T02:21:41;13.00;78.40
26254;DHT22;53339;51.378;0.094;2023-08-08T02:24:13;12.90;78.60
26254;DHT22;53339;51.378;0.094;2023-08-08T02:26:41;12.90;78.80
26254;DHT22;53339;51.378;0.094;2023-08-08T02:29:23;12.90;78.90
26254;DHT22;53339;51.378;0.094;2023-08-08T02:31:53;12.90;79.00
26254;DHT22;53339;51.378;0.094;2023-08-08T02:34:22;12.90;79.00
26254;DHT22;53339;51.378;0.094;2023-08-08T02:36:52;12.80;79.10
26254;DHT22;53339;51.378;0.094;2023-08-08T02:39:20;12.80;79.10
26254;DHT22;53339;51.378;0.094;2023-08-08T02:41:50;12.80;79.20
26254;DHT22;53339;51.378;0.094;2023-08-08T02:44:19;12.70;79.30
26254;DHT22;53339;51.378;0.094;2023-08-08T02:46:54;12.70;79.30
26254;DHT22;53339;51.378;0.094;2023-08-08T02:49:26;12.70;79.40
26254;DHT22;53339;51.378;0.094;2023-08-08T02:51:54;12.70;79.40
26254;DHT22;53339;51.378;0.094;2023-08-08T02:54:26;12.70;79.50
26254;DHT22;53339;51.378;0.094;2023-08-08T02:56:55;12.70;79.50
26254;DHT22;53339;51.378;0.094;2023-08-08T02:59:24;12.70;79.50
26254;DHT22;53339;51.378;0.094;2023-08-08T03:01:53;12.60;79.60
26254;DHT22;53339;51.378;0.094;2023-08-08T03:04:25;12.60;79.60
26254;DHT22;53339;51.378;0.094;2023-08-08T03:06:54;12.60;79.70
26254;DHT22;53339;51.378;0.094;2023-08-08T03:09:23;12.60;79.70
26254;DHT22;53339;51.378;0.094;2023-08-08T03:11:52;12.60;79.70
26254;DHT22;53339;51.378;0.094;2023-08-08T03:14:26;12.50;79.70
26254;DHT22;53339;51.378;0.094;2023-08-08T03:16:57;12.50;79.80
26254;DHT22;53339;51.378;0.094;2023-08-08T03:19:33;12.50;79.80
26254;DHT22;53339;51.378;0.094;2023-08-08T03:22:03;12.50;79.90
26254;DHT22;53339;51.378;0.094;2023-08-08T03:24:38;12.50;80.10
26254;DHT22;53339;51.378;0.094;2023-08-08T03:27:07;12.60;80.30
26254;DHT22;53339;51.378;0.094;2023-08-08T03:29:37;12.60;80.30
26254;DHT22;53339;51.378;0.094;2023-08-08T03:32:06;12.60;80.30
26254;DHT22;53339;51.378;0.094;2023-08-08T03:34:38;12.60;80.30
26254;DHT22;53339;51.378;0.094;2023-08-08T03:37:07;12.60;80.30
26254;DHT22;53339;51.378;0.094;2023-08-08T03:39:35;12.60;80.40
26254;DHT22;53339;51.378;0.094;2023-08-08T03:42:04;12.60;80.40
26254;DHT22;53339;51.378;0.094;2023-08-08T03:44:33;12.60;80.40
26254;DHT22;53339;51.378;0.094;2023-08-08T03:47:03;12.60;80.40
26254;DHT22;53339;51.378;0.094;2023-08-08T03:49:47;12.60;80.40
26254;DHT22;53339;51.378;0.094;2023-08-08T03:52:19;12.60;80.50
26254;DHT22;53339;51.378;0.094;2023-08-08T03:54:52;12.70;80.50
26254;DHT22;53339;51.378;0.094;2023-08-08T03:57:25;12.70;80.50
26254;DHT22;53339;51.378;0.094;2023-08-08T03:59:57;12.80;80.40
26254;DHT22;53339;51.378;0.094;2023-08-08T04:02:26;12.80;80.40
26254;DHT22;53339;51.378;0.094;2023-08-08T04:04:58;12.90;80.30
26254;DHT22;53339;51.378;0.094;2023-08-08T04:07:27;12.90;80.20
26254;DHT22;53339;51.378;0.094;2023-08-08T04:09:55;13.00;80.10
26254;DHT22;53339;51.378;0.094;2023-08-08T04:12:29;13.10;80.10
26254;DHT22;53339;51.378;0.094;2023-08-08T04:15:00;13.10;80.00
26254;DHT22;53339;51.378;0.094;2023-08-08T04:17:33;13.20;79.90
26254;DHT22;53339;51.378;0.094;2023-08-08T04:20:07;13.20;79.90
26254;DHT22;53339;51.378;0.094;2023-08-08T04:22:39;13.20;79.80
26254;DHT22;53339;51.378;0.094;2023-08-08T04:25:10;13.20;79.80
26254;DHT22;53339;51.378;0.094;2023-08-08T04:27:44;13.30;79.80
26254;DHT22;53339;51.378;0.094;2023-08-08T04:30:16;13.30;79.70
26254;DHT22;53339;51.378;0.094;2023-08-08T04:32:45;13.30;79.60
26254;DHT22;53339;51.378;0.094;2023-08-08T04:35:13;13.40;79.60
26254;DHT22;53339;51.378;0.094;2023-08-08T04:37:48;13.40;79.60
26254;DHT22;53339;51.378;0.094;2023-08-08T04:40:20;13.40;79.60
26254;DHT22;53339;51.378;0.094;2023-08-08T04:42:48;13.40;79.60
26254;DHT22;53339;51.378;0.094;2023-08-08T04:45:16;13.40;79.70
26254;DHT22;53339;51.378;0.094;2023-08-08T04:47:44;13.40;79.70
26254;DHT22;53339;51.378;0.094;2023-08-08T04:50:12;13.50;79.70
26254;DHT22;53339;51.378;0.094;2023-08-08T04:52:40;13.50;79.70
26254;DHT22;53339;51.378;0.094;2023-08-08T04:55:09;13.50;79.70
26254;DHT22;53339;51.378;0.094;2023-08-08T04:57:37;13.50;79.70
26254;DHT22;53339;51.378;0.094;2023-08-08T05:00:09;13.60;79.70
26254;DHT22;53339;51.378;0.094;2023-08-08T05:02:37;13.60;79.80
26254;DHT22;53339;51.378;0.094;2023-08-08T05:05:08;13.60;79.80
26254;DHT22;53339;51.378;0.094;2023-08-08T05:07:36;13.60;79.80
26254;DHT22;53339;51.378;0.094;2023-08-08T05:10:06;13.60;79.80
26254;DHT22;53339;51.378;0.094;2023-08-08T05:12:36;13.60;79.80
26254;DHT22;53339;51.378;0.094;2023-08-08T05:15:04;13.60;79.80
26254;DHT22;53339;51.378;0.094;2023-08-08T05:17:35;13.60;79.80
26254;DHT22;53339;51.378;0.094;2023-08-08T05:20:07;13.50;79.90
26254;DHT22;53339;51.378;0.094;2023-08-08T05:22:37;13.60;80.00
26254;DHT22;53339;51.378;0.094;2023-08-08T05:25:10;13.50;80.10
26254;DHT22;53339;51.378;0.094;2023-08-08T05:27:38;13.50;80.30
26254;DHT22;53339;51.378;0.094;2023-08-08T05:30:06;13.50;80.40
26254;DHT22;53339;51.378;0.094;2023-08-08T05:32:34;13.50;80.50
26254;DHT22;53339;51.378;0.094;2023-08-08T05:35:02;13.50;80.50
26254;DHT22;53339;51.378;0.094;2023-08-08T05:37:37;13.50;80.60
26254;DHT22;53339;51.378;0.094;2023-08-08T05:40:05;13.50;80.70
26254;DHT22;53339;51.378;0.094;2023-08-08T05:42:34;13.60;80.90
26254;DHT22;53339;51.378;0.094;2023-08-08T05:45:05;13.60;80.90
26254;DHT22;53339;51.378;0.094;2023-08-08T05:47:34;13.60;81.10
26254;DHT22;53339;51.378;0.094;2023-08-08T05:50:06;13.60;81.20
26254;DHT22;53339;51.378;0.094;2023-08-08T05:52:35;13.60;81.30
26254;DHT22;53339;51.378;0.094;2023-08-08T05:55:03;13.70;81.30
26254;DHT22;53339;51.378;0.094;2023-08-08T05:57:41;13.80;81.40
26254;DHT22;53339;51.378;0.094;2023-08-08T06:00:10;13.90;81.30
26254;DHT22;53339;51.378;0.094;2023-08-08T06:02:43;14.00;81.30
26254;DHT22;53339;51.378;0.094;2023-08-08T06:05:12;14.20;81.20
26254;DHT22;53339;51.378;0.094;2023-08-08T06:07:40;14.30;81.00
26254;DHT22;53339;51.378;0.094;2023-08-08T06:10:17;14.40;80.80
26254;DHT22;53339;51.378;0.094;2023-08-08T06:12:45;14.40;80.50
26254;DHT22;53339;51.378;0.094;2023-08-08T06:15:20;14.40;80.40
26254;DHT22;53339;51.378;0.094;2023-08-08T06:17:49;14.50;80.40
26254;DHT22;53339;51.378;0.094;2023-08-08T06:20:23;14.50;80.40
26254;DHT22;53339;51.378;0.094;2023-08-08T06:22:51;14.50;80.50
26254;DHT22;53339;51.378;0.094;2023-08-08T06:25:19;14.50;80.40
26254;DHT22;53339;51.378;0.094;2023-08-08T06:27:51;14.50;80.40
26254;DHT22;53339;51.378;0.094;2023-08-08T06:30:19;14.50;80.50
26254;DHT22;53339;51.378;0.094;2023-08-08T06:32:49;14.50;80.50
26254;DHT22;53339;51.378;0.094;2023-08-08T06:35:17;14.60;80.60
26254;DHT22;53339;51.378;0.094;2023-08-08T06:37:48;14.60;80.60
26254;DHT22;53339;51.378;0.094;2023-08-08T06:40:21;14.70;80.60
26254;DHT22;53339;51.378;0.094;2023-08-08T06:42:50;14.80;80.60
26254;DHT22;53339;51.378;0.094;2023-08-08T06:45:22;14.90;80.20
26254;DHT22;53339;51.378;0.094;2023-08-08T06:47:51;15.00;80.20
26254;DHT22;53339;51.378;0.094;2023-08-08T06:50:24;15.10;80.10
26254;DHT22;53339;51.378;0.094;2023-08-08T06:52:55;15.10;79.80
26254;DHT22;53339;51.378;0.094;2023-08-08T06:55:26;15.20;79.80
26254;DHT22;53339;51.378;0.094;2023-08-08T06:57:57;15.20;79.70
26254;DHT22;53339;51.378;0.094;2023-08-08T07:00:50;15.30;79.30
26254;DHT22;53339;51.378;0.094;2023-08-08T07:03:19;15.50;79.50
26254;DHT22;53339;51.378;0.094;2023-08-08T07:05:46;15.60;79.20
26254;DHT22;53339;51.378;0.094;2023-08-08T07:08:20;15.70;78.90
26254;DHT22;53339;51.378;0.094;2023-08-08T07:10:50;15.80;78.50
26254;DHT22;53339;51.378;0.094;2023-08-08T07:13:20;15.70;78.40
26254;DHT22;53339;51.378;0.094;2023-08-08T07:15:50;15.80;78.60
26254;DHT22;53339;51.378;0.094;2023-08-08T07:18:17;15.80;78.50
26254;DHT22;53339;51.378;0.094;2023-08-08T07:20:49;15.80;78.20
26254;DHT22;53339;51.378;0.094;2023-08-08T07:23:17;15.90;77.90
26254;DHT22;53339;51.378;0.094;2023-08-08T07:25:48;15.90;77.80
26254;DHT22;53339;51.378;0.094;2023-08-08T07:28:18;16.00;77.80
26254;DHT22;53339;51.378;0.094;2023-08-08T07:30:46;16.00;77.50
26254;DHT22;53339;51.378;0.094;2023-08-08T07:33:15;16.00;77.10
26254;DHT22;53339;51.378;0.094;2023-08-08T07:35:50;16.00;77.30
26254;DHT22;53339;51.378;0.094;2023-08-08T07:38:24;15.90;77.20
26254;DHT22;53339;51.378;0.094;2023-08-08T07:40:53;15.90;77.30
26254;DHT22;53339;51.378;0.094;2023-08-08T07:43:22;15.90;77.50
26254;DHT22;53339;51.378;0.094;2023-08-08T07:45:55;15.80;77.60
26254;DHT22;53339;51.378;0.094;2023-08-08T07:48:24;15.80;77.60
26254;DHT22;53339;51.378;0.094;2023-08-08T07:50:57;15.80;77.60
26254;DHT22;53339;51.378;0.094;2023-08-08T07:53:27;15.70;77.80
26254;DHT22;53339;51.378;0.094;2023-08-08T07:55:55;15.70;78.10
26254;DHT22;53339;51.378;0.094;2023-08-08T07:58:30;15.50;78.50
26254;DHT22;53339;51.378;0.094;2023-08-08T08:01:01;15.30;79.00
26254;DHT22;53339;51.378;0.094;2023-08-08T08:03:30;15.10;79.90
26254;DHT22;53339;51.378;0.094;2023-08-08T08:05:59;15.00;80.70
26254;DHT22;53339;51.378;0.094;2023-08-08T08:08:30;14.90;81.20
26254;DHT22;53339;51.378;0.094;2023-08-08T08:11:02;14.70;81.60
26254;DHT22;53339;51.378;0.094;2023-08-08T08:13:36;14.70;82.20
26254;DHT22;53339;51.378;0.094;2023-08-08T08:16:04;14.60;82.70
26254;DHT22;53339;51.378;0.094;2023-08-08T08:18:33;14.60;82.90
26254;DHT22;53339;51.378;0.094;2023-08-08T08:21:01;14.60;83.20
26254;DHT22;53339;51.378;0.094;2023-08-08T08:23:36;14.70;83.40
26254;DHT22;53339;51.378;0.094;2023-08-08T08:26:07;14.70;83.60
26254;DHT22;53339;51.378;0.094;2023-08-08T08:28:37;14.70;83.70
26254;DHT22;53339;51.378;0.094;2023-08-08T08:31:15;14.70;83.80
26254;DHT22;53339;51.378;0.094;2023-08-08T08:33:43;14.70;83.70
26254;DHT22;53339;51.378;0.094;2023-08-08T08:36:13;14.70;83.80
26254;DHT22;53339;51.378;0.094;2023-08-08T08:38:44;14.70;84.00
26254;DHT22;53339;51.378;0.094;2023-08-08T08:41:17;14.80;84.10
26254;DHT22;53339;51.378;0.094;2023-08-08T08:43:46;14.80;84.10
26254;DHT22;53339;51.378;0.094;2023-08-08T08:46:21;14.80;84.00
26254;DHT22;53339;51.378;0.094;2023-08-08T08:48:50;14.80;84.10
26254;DHT22;53339;51.378;0.094;2023-08-08T08:51:19;14.80;84.30
26254;DHT22;53339;51.378;0.094;2023-08-08T08:53:58;14.80;84.40
26254;DHT22;53339;51.378;0.094;2023-08-08T08:56:28;14.80;84.60
26254;DHT22;53339;51.378;0.094;2023-08-08T08:59:00;14.80;84.60
26254;DHT22;53339;51.378;0.094;2023-08-08T09:01:30;14.90;84.60
26254;DHT22;53339;51.378;0.094;2023-08-08T09:03:59;14.80;84.50
26254;DHT22;53339;51.378;0.094;2023-08-08T09:06:28;14.80;84.60
26254;DHT22;53339;51.378;0.094;2023-08-08T09:08:57;14.80;84.60
26254;DHT22;53339;51.378;0.094;2023-08-08T09:11:42;14.80;84.80
26254;DHT22;53339;51.378;0.094;2023-08-08T09:14:21;14.80;84.70
26254;DHT22;53339;51.378;0.094;2023-08-08T09:17:13;14.80;84.80
26254;DHT22;53339;51.378;0.094;2023-08-08T09:19:44;14.90;85.00
26254;DHT22;53339;51.378;0.094;2023-08-08T09:22:19;14.90;84.90
26254;DHT22;53339;51.378;0.094;2023-08-08T09:24:47;14.90;85.00
26254;DHT22;53339;51.378;0.094;2023-08-08T09:27:19;14.90;85.00
26254;DHT22;53339;51.378;0.094;2023-08-08T09:29:55;14.90;85.10
26254;DHT22;53339;51.378;0.094;2023-08-08T09:32:29;14.90;85.30
26254;DHT22;53339;51.378;0.094;2023-08-08T09:35:03;15.00;85.40
26254;DHT22;53339;51.378;0.094;2023-08-08T09:37:53;15.00;85.30
26254;DHT22;53339;51.378;0.094;2023-08-08T09:40:23;14.90;85.40
26254;DHT22;53339;51.378;0.094;2023-08-08T09:42:56;14.90;85.50
26254;DHT22;53339;51.378;0.094;2023-08-08T09:45:34;14.90;85.70
26254;DHT22;53339;51.378;0.094;2023-08-08T09:48:04;14.90;85.70
26254;DHT22;53339;51.378;0.094;2023-08-08T09:50:36;15.00;85.90
26254;DHT22;53339;51.378;0.094;2023-08-08T09:53:04;14.90;85.90
26254;DHT22;53339;51.378;0.094;2023-08-08T09:55:37;15.00;86.20
26254;DHT22;53339;51.378;0.094;2023-08-08T09:58:06;15.10;86.50
26254;DHT22;53339;51.378;0.094;2023-08-08T10:00:35;15.20;86.50
26254;DHT22;53339;51.378;0.094;2023-08-08T10:03:06;15.20;86.70
26254;DHT22;53339;51.378;0.094;2023-08-08T10:05:41;15.40;86.80
26254;DHT22;53339;51.378;0.094;2023-08-08T10:08:14;15.50;86.80
26254;DHT22;53339;51.378;0.094;2023-08-08T10:11:05;15.40;86.60
26254;DHT22;53339;51.378;0.094;2023-08-08T10:13:36;15.40;86.60
26254;DHT22;53339;51.378;0.094;2023-08-08T10:16:08;15.30;86.50
26254;DHT22;53339;51.378;0.094;2023-08-08T10:18:42;15.20;86.60
26254;DHT22;53339;51.378;0.094;2023-08-08T10:21:14;15.20;86.80
26254;DHT22;53339;51.378;0.094;2023-08-08T10:23:43;15.20;87.00
26254;DHT22;53339;51.378;0.094;2023-08-08T10:26:19;15.30;87.40
26254;DHT22;53339;51.378;0.094;2023-08-08T10:28:55;15.40;87.40
26254;DHT22;53339;51.378;0.094;2023-08-08T10:31:27;15.40;87.20
26254;DHT22;53339;51.378;0.094;2023-08-08T10:34:09;15.40;87.30
26254;DHT22;53339;51.378;0.094;2023-08-08T10:36:51;15.50;87.30
26254;DHT22;53339;51.378;0.094;2023-08-08T10:39:22;15.50;87.40
26254;DHT22;53339;51.378;0.094;2023-08-08T10:41:52;15.60;87.50
26254;DHT22;53339;51.378;0.094;2023-08-08T10:44:23;15.60;87.50
26254;DHT22;53339;51.378;0.094;2023-08-08T10:46:52;15.70;87.50
26254;DHT22;53339;51.378;0.094;2023-08-08T10:49:23;15.70;87.50
26254;DHT22;53339;51.378;0.094;2023-08-08T10:51:51;15.70;87.30
26254;DHT22;53339;51.378;0.094;2023-08-08T10:54:25;15.70;87.30
26254;DHT22;53339;51.378;0.094;2023-08-08T10:57:00;15.70;87.60
26254;DHT22;53339;51.378;0.094;2023-08-08T10:59:38;16.00;88.00
26254;DHT22;53339;51.378;0.094;2023-08-08T11:02:16;16.20;88.10
26254;DHT22;53339;51.378;0.094;2023-08-08T11:04:44;16.40;87.80
26254;DHT22;53339;51.378;0.094;2023-08-08T11:07:15;16.60;87.80
26254;DHT22;53339;51.378;0.094;2023-08-08T11:09:49;16.80;87.60
26254;DHT22;53339;51.378;0.094;2023-08-08T11:12:21;17.10;86.90
26254;DHT22;53339;51.378;0.094;2023-08-08T11:14:51;17.20;87.00
26254;DHT22;53339;51.378;0.094;2023-08-08T11:17:18;17.40;86.00
26254;DHT22;53339;51.378;0.094;2023-08-08T11:19:47;17.40;85.60
26254;DHT22;53339;51.378;0.094;2023-08-08T11:22:21;17.30;85.00
26254;DHT22;53339;51.378;0.094;2023-08-08T11:24:51;17.20;84.00
26254;DHT22;53339;51.378;0.094;2023-08-08T11:27:24;17.10;83.30
26254;DHT22;53339;51.378;0.094;2023-08-08T11:29:58;17.00;83.50
26254;DHT22;53339;51.378;0.094;2023-08-08T11:32:27;17.00;83.90
26254;DHT22;53339;51.378;0.094;2023-08-08T11:34:56;17.00;84.00
26254;DHT22;53339;51.378;0.094;2023-08-08T11:37:24;17.00;83.70
26254;DHT22;53339;51.378;0.094;2023-08-08T11:39:52;16.90;83.50
26254;DHT22;53339;51.378;0.094;2023-08-08T11:42:23;16.90;83.50
26254;DHT22;53339;51.378;0.094;2023-08-08T11:44:52;16.90;83.70
26254;DHT22;53339;51.378;0.094;2023-08-08T11:47:29;16.90;84.00
26254;DHT22;53339;51.378;0.094;2023-08-08T11:50:04;16.80;83.90
26254;DHT22;53339;51.378;0.094;2023-08-08T11:52:42;16.80;84.00
26254;DHT22;53339;51.378;0.094;2023-08-08T11:55:16;16.80;84.10
26254;DHT22;53339;51.378;0.094;2023-08-08T11:57:56;16.90;84.40
26254;DHT22;53339;51.378;0.094;2023-08-08T12:00:28;17.00;84.30
26254;DHT22;53339;51.378;0.094;2023-08-08T12:03:04;16.90;84.30
26254;DHT22;53339;51.378;0.094;2023-08-08T12:05:38;16.80;84.40
26254;DHT22;53339;51.378;0.094;2023-08-08T12:08:10;16.70;84.70
26254;DHT22;53339;51.378;0.094;2023-08-08T12:10:47;16.60;85.00
26254;DHT22;53339;51.378;0.094;2023-08-08T12:13:22;16.50;85.40
26254;DHT22;53339;51.378;0.094;2023-08-08T12:15:52;16.50;85.80
26254;DHT22;53339;51.378;0.094;2023-08-08T12:18:24;16.40;85.60
26254;DHT22;53339;51.378;0.094;2023-08-08T12:20:52;16.40;85.90
26254;DHT22;53339;51.378;0.094;2023-08-08T12:23:23;16.40;86.10
26254;DHT22;53339;51.378;0.094;2023-08-08T12:25:57;16.40;86.30
26254;DHT22;53339;51.378;0.094;2023-08-08T12:28:26;16.40;86.40
26254;DHT22;53339;51.378;0.094;2023-08-08T12:30:57;16.40;86.80
26254;DHT22;53339;51.378;0.094;2023-08-08T12:33:26;16.60;87.00
26254;DHT22;53339;51.378;0.094;2023-08-08T12:35:57;16.70;87.10
26254;DHT22;53339;51.378;0.094;2023-08-08T12:38:26;16.80;87.00
26254;DHT22;53339;51.378;0.094;2023-08-08T12:41:04;16.90;87.40
26254;DHT22;53339;51.378;0.094;2023-08-08T12:43:36;17.10;87.60
26254;DHT22;53339;51.378;0.094;2023-08-08T12:46:08;17.30;87.40
26254;DHT22;53339;51.378;0.094;2023-08-08T12:48:36;17.30;86.60
26254;DHT22;53339;51.378;0.094;2023-08-08T12:51:05;17.20;86.20
26254;DHT22;53339;51.378;0.094;2023-08-08T12:53:35;17.10;86.10
26254;DHT22;53339;51.378;0.094;2023-08-08T12:56:03;16.90;86.30
26254;DHT22;53339;51.378;0.094;2023-08-08T12:58:38;16.90;86.70
26254;DHT22;53339;51.378;0.094;2023-08-08T13:01:09;17.00;86.80
26254;DHT22;53339;51.378;0.094;2023-08-08T13:03:40;16.90;86.80
26254;DHT22;53339;51.378;0.094;2023-08-08T13:06:19;16.90;86.90
26254;DHT22;53339;51.378;0.094;2023-08-08T13:08:47;17.00;87.00
26254;DHT22;53339;51.378;0.094;2023-08-08T13:11:18;17.00;87.10
26254;DHT22;53339;51.378;0.094;2023-08-08T13:13:46;17.00;86.90
26254;DHT22;53339;51.378;0.094;2023-08-08T13:16:18;16.90;86.90
26254;DHT22;53339;51.378;0.094;2023-08-08T13:18:52;16.90;87.00
26254;DHT22;53339;51.378;0.094;2023-08-08T13:21:26;16.90;87.00
26254;DHT22;53339;51.378;0.094;2023-08-08T13:24:05;16.80;86.70
26254;DHT22;53339;51.378;0.094;2023-08-08T13:26:34;16.70;86.90
26254;DHT22;53339;51.378;0.094;2023-08-08T13:29:06;16.70;87.00
26254;DHT22;53339;51.378;0.094;2023-08-08T13:31:38;16.60;86.90
26254;DHT22;53339;51.378;0.094;2023-08-08T13:34:10;16.60;87.10
26254;DHT22;53339;51.378;0.094;2023-08-08T13:36:49;16.60;87.40
26254;DHT22;53339;51.378;0.094;2023-08-08T13:39:21;16.50;87.40
26254;DHT22;53339;51.378;0.094;2023-08-08T13:41:49;16.40;87.50
26254;DHT22;53339;51.378;0.094;2023-08-08T13:44:21;16.40;87.70
26254;DHT22;53339;51.378;0.094;2023-08-08T13:46:49;16.50;87.80
26254;DHT22;53339;51.378;0.094;2023-08-08T13:49:17;16.50;87.90
26254;DHT22;53339;51.378;0.094;2023-08-08T13:51:50;16.50;88.00
26254;DHT22;53339;51.378;0.094;2023-08-08T13:54:33;16.60;88.10
26254;DHT22;53339;51.378;0.094;2023-08-08T13:57:05;16.60;88.30
26254;DHT22;53339;51.378;0.094;2023-08-08T13:59:35;16.60;88.00
26254;DHT22;53339;51.378;0.094;2023-08-08T14:02:05;16.50;88.00
26254;DHT22;53339;51.378;0.094;2023-08-08T14:04:34;16.50;88.20
26254;DHT22;53339;51.378;0.094;2023-08-08T14:07:02;16.50;88.30
26254;DHT22;53339;51.378;0.094;2023-08-08T14:09:38;16.50;88.40
26254;DHT22;53339;51.378;0.094;2023-08-08T14:12:11;16.60;88.20
26254;DHT22;53339;51.378;0.094;2023-08-08T14:14:45;16.40;88.00
26254;DHT22;53339;51.378;0.094;2023-08-08T14:17:15;16.40;88.00
26254;DHT22;53339;51.378;0.094;2023-08-08T14:19:43;16.30;88.20
26254;DHT22;53339;51.378;0.094;2023-08-08T14:22:11;16.40;88.40
26254;DHT22;53339;51.378;0.094;2023-08-08T14:24:47;16.40;88.30
26254;DHT22;53339;51.378;0.094;2023-08-08T14:27:15;16.30;88.40
26254;DHT22;53339;51.378;0.094;2023-08-08T14:29:43;16.30;88.60
26254;DHT22;53339;51.378;0.094;2023-08-08T14:32:11;16.40;88.80
26254;DHT22;53339;51.378;0.094;2023-08-08T14:34:55;16.50;88.90
26254;DHT22;53339;51.378;0.094;2023-08-08T14:37:26;16.60;88.90
26254;DHT22;53339;51.378;0.094;2023-08-08T14:39:54;16.70;88.80
26254;DHT22;53339;51.378;0.094;2023-08-08T14:42:22;16.80;89.00
26254;DHT22;53339;51.378;0.094;2023-08-08T14:44:51;17.00;89.00
26254;DHT22;53339;51.378;0.094;2023-08-08T14:47:25;17.10;89.00
26254;DHT22;53339;51.378;0.094;2023-08-08T14:49:55;17.20;88.60
26254;DHT22;53339;51.378;0.094;2023-08-08T14:52:24;17.10;88.10
26254;DHT22;53339;51.378;0.094;2023-08-08T14:54:54;17.10;88.00
26254;DHT22;53339;51.378;0.094;2023-08-08T14:57:28;17.10;88.00
26254;DHT22;53339;51.378;0.094;2023-08-08T14:59:58;17.00;87.70
26254;DHT22;53339;51.378;0.094;2023-08-08T15:02:29;17.00;87.70
26254;DHT22;53339;51.378;0.094;2023-08-08T15:05:12;17.00;87.80
26254;DHT22;53339;51.378;0.094;2023-08-08T15:07:41;17.10;87.70
26254;DHT22;53339;51.378;0.094;2023-08-08T15:10:15;17.10;87.70
26254;DHT22;53339;51.378;0.094;2023-08-08T15:12:44;17.10;87.60
26254;DHT22;53339;51.378;0.094;2023-08-08T15:15:15;17.10;87.50
26254;DHT22;53339;51.378;0.094;2023-08-08T15:17:45;17.00;87.60
26254;DHT22;53339;51.378;0.094;2023-08-08T15:20:17;17.10;87.70
26254;DHT22;53339;51.378;0.094;2023-08-08T15:22:46;17.10;87.60
26254;DHT22;53339;51.378;0.094;2023-08-08T15:25:15;17.10;87.40
26254;DHT22;53339;51.378;0.094;2023-08-08T15:27:44;17.10;87.30
26254;DHT22;53339;51.378;0.094;2023-08-08T15:30:13;17.10;87.20
26254;DHT22;53339;51.378;0.094;2023-08-08T15:32:41;17.10;87.00
26254;DHT22;53339;51.378;0.094;2023-08-08T15:35:10;17.00;87.10
26254;DHT22;53339;51.378;0.094;2023-08-08T15:37:39;17.00;87.30
26254;DHT22;53339;51.378;0.094;2023-08-08T15:40:11;17.00;87.20
26254;DHT22;53339;51.378;0.094;2023-08-08T15:42:44;17.00;87.30
26254;DHT22;53339;51.378;0.094;2023-08-08T15:45:14;17.00;87.40
26254;DHT22;53339;51.378;0.094;2023-08-08T15:47:51;17.00;87.30
26254;DHT22;53339;51.378;0.094;2023-08-08T15:50:33;17.00;87.40
26254;DHT22;53339;51.378;0.094;2023-08-08T15:53:05;16.90;87.40
26254;DHT22;53339;51.378;0.094;2023-08-08T15:55:40;17.00;87.60
26254;DHT22;53339;51.378;0.094;2023-08-08T15:58:12;17.00;87.60
26254;DHT22;53339;51.378;0.094;2023-08-08T16:00:40;17.00;87.60
26254;DHT22;53339;51.378;0.094;2023-08-08T16:03:14;17.00;87.60